Edgar B Speer — WQZ9670 — position and weather

sailwx.info

Track history (hours):
 
Tides and Currents Weather Stations Pressure Air Temp Water Temp Dewpoint Dewpoint Depression Visibility Wind Speed Wind Dir Waves Ship Positions

Edgar B Speer

More information available from US FCC via Universal Licensing System and Coast Guard Vessel Documentation Center.

Last reported at 2014-Jul-31 23:33 UTC. Time now 2014-Jul-31 23:45 UTC.
Position N 45°32' W 085°23'.

Length 306 m; draft 8 m.

Type: Cargo ship. MMSI: 366971330.

Date/timePositionNaut miles runAvg speedWind from/ knotsBaromVisibWave heightAir tempDewpointWater temp
2014-Jul-31 23:33N 45°32' W 085°23'1413.7
2014-Jul-31 22:33N 45°21' W 085°35'1413.9
2014-Jul-31 21:33N 45°10' W 085°47'1413.6
2014-Jul-31 20:33N 44°60' W 085°59'1313.3
2014-Jul-31 19:33N 44°52' W 086°14'1414.0
2014-Jul-31 18:33N 44°40' W 086°23'16 0.4
2014-Jul-30 00:31N 44°56' W 086°25'1412.8
2014-Jul-29 23:26N 45°09' W 086°19'1113.0
2014-Jul-29 22:33N 45°20' W 086°15'1313.1
2014-Jul-29 21:33N 45°33' W 086°10'1211.8
2014-Jul-29 20:33N 45°43' W 086°01'1312.6
2014-Jul-29 19:33N 45°49' W 085°46'1211.8
2014-Jul-29 18:33N 45°54' W 085°30'1212.4
2014-Jul-29 17:33N 45°52' W 085°12'1212.3
2014-Jul-29 16:33N 45°50' W 084°55'1211.5
2014-Jul-29 15:33N 45°50' W 084°39'1211.8
2014-Jul-29 14:33N 45°52' W 084°22'1312.6
2014-Jul-29 13:33N 45°54' W 084°04'27 6.5
2014-Jul-29 09:22N 46°21' W 084°13'12 3.2
2014-Jul-29 05:27N 46°29' W 084°27'6 6.6
2014-Jul-29 04:33N 46°29' W 084°35'1211.8
2014-Jul-29 03:32N 46°38' W 084°47'  
2014-Jul-26 08:33N 45°56' W 083°54'1313.4
2014-Jul-26 07:33N 45°51' W 084°12'1413.6
2014-Jul-26 06:33N 45°51' W 084°31'1312.6
2014-Jul-26 05:33N 45°49' W 084°49'1313.3
2014-Jul-26 04:34N 45°50' W 085°08'1211.6
2014-Jul-26 03:33N 45°39' W 085°16'1413.9
2014-Jul-26 02:33N 45°28' W 085°28'1413.9
2014-Jul-26 01:33N 45°17' W 085°39'1413.8
2014-Jul-26 00:33N 45°06' W 085°51'1313.5
2014-Jul-25 23:33N 44°57' W 086°06'1413.4
2014-Jul-25 22:33N 44°47' W 086°18'  
2014-Jul-23 14:04N 44°51' W 086°26'712.9
2014-Jul-23 13:33N 44°57' W 086°24'1613.0
2014-Jul-23 12:20N 45°13' W 086°18'1012.6
2014-Jul-23 11:33N 45°22' W 086°14'1212.4
2014-Jul-23 10:33N 45°34' W 086°09'1211.6
2014-Jul-23 09:33N 45°44' W 085°60'1312.5
2014-Jul-23 08:33N 45°50' W 085°44'1211.8
2014-Jul-23 07:33N 45°54' W 085°28'1212.3
2014-Jul-23 06:33N 45°52' W 085°11'1212.3
2014-Jul-23 05:33N 45°50' W 084°53'1111.1
2014-Jul-23 04:33N 45°50' W 084°37'1212.0
2014-Jul-23 03:33N 45°53' W 084°20'1212.3
2014-Jul-23 02:33N 45°55' W 084°03'8 7.6
2014-Jul-23 01:33N 45°59' W 083°53'9 9.4
2014-Jul-23 00:33N 46°06' W 084°01'43 4.7
2014-Jul-22 15:29N 46°36' W 084°45'1212.2
2014-Jul-22 14:31N 46°46' W 084°54'1412.1
2014-Jul-22 13:24N 46°53' W 085°11'1112.4
2014-Jul-22 12:31N 46°57' W 085°26'1212.4
2014-Jul-22 11:32N 47°02' W 085°42'1412.5
2014-Jul-22 10:27N 47°08' W 086°01'  
Track history (hours):
 
Tides and Currents Weather Stations Pressure Air Temp Water Temp Dewpoint Dewpoint Depression Visibility Wind Speed Wind Dir Waves Ship Positions

Edgar B Speer

More information available from US FCC via Universal Licensing System and Coast Guard Vessel Documentation Center.

Last reported at 2014-Jul-31 23:33 UTC. Time now 2014-Jul-31 23:45 UTC.
Position N 45°32' W 085°23'.

Length 306 m; draft 8 m.

Type: Cargo ship. MMSI: 366971330.

Date/timePositionNaut miles runAvg speedWind from/ knotsBaromVisibWave heightAir tempDewpointWater temp
2014-Jul-31 23:33N 45°32' W 085°23'1413.7
2014-Jul-31 22:33N 45°21' W 085°35'1413.9
2014-Jul-31 21:33N 45°10' W 085°47'1413.6
2014-Jul-31 20:33N 44°60' W 085°59'1313.3
2014-Jul-31 19:33N 44°52' W 086°14'1414.0
2014-Jul-31 18:33N 44°40' W 086°23'16 0.4
2014-Jul-30 00:31N 44°56' W 086°25'1412.8
2014-Jul-29 23:26N 45°09' W 086°19'1113.0
2014-Jul-29 22:33N 45°20' W 086°15'1313.1
2014-Jul-29 21:33N 45°33' W 086°10'1211.8
2014-Jul-29 20:33N 45°43' W 086°01'1312.6
2014-Jul-29 19:33N 45°49' W 085°46'1211.8
2014-Jul-29 18:33N 45°54' W 085°30'1212.4
2014-Jul-29 17:33N 45°52' W 085°12'1212.3
2014-Jul-29 16:33N 45°50' W 084°55'1211.5
2014-Jul-29 15:33N 45°50' W 084°39'1211.8
2014-Jul-29 14:33N 45°52' W 084°22'1312.6
2014-Jul-29 13:33N 45°54' W 084°04'27 6.5
2014-Jul-29 09:22N 46°21' W 084°13'12 3.2
2014-Jul-29 05:27N 46°29' W 084°27'6 6.6
2014-Jul-29 04:33N 46°29' W 084°35'1211.8
2014-Jul-29 03:32N 46°38' W 084°47'  
2014-Jul-26 08:33N 45°56' W 083°54'1313.4
2014-Jul-26 07:33N 45°51' W 084°12'1413.6
2014-Jul-26 06:33N 45°51' W 084°31'1312.6
2014-Jul-26 05:33N 45°49' W 084°49'1313.3
2014-Jul-26 04:34N 45°50' W 085°08'1211.6
2014-Jul-26 03:33N 45°39' W 085°16'1413.9
2014-Jul-26 02:33N 45°28' W 085°28'1413.9
2014-Jul-26 01:33N 45°17' W 085°39'1413.8
2014-Jul-26 00:33N 45°06' W 085°51'1313.5
2014-Jul-25 23:33N 44°57' W 086°06'1413.4
2014-Jul-25 22:33N 44°47' W 086°18'  
2014-Jul-23 14:04N 44°51' W 086°26'712.9
2014-Jul-23 13:33N 44°57' W 086°24'1613.0
2014-Jul-23 12:20N 45°13' W 086°18'1012.6
2014-Jul-23 11:33N 45°22' W 086°14'1212.4
2014-Jul-23 10:33N 45°34' W 086°09'1211.6
2014-Jul-23 09:33N 45°44' W 085°60'1312.5
2014-Jul-23 08:33N 45°50' W 085°44'1211.8
2014-Jul-23 07:33N 45°54' W 085°28'1212.3
2014-Jul-23 06:33N 45°52' W 085°11'1212.3
2014-Jul-23 05:33N 45°50' W 084°53'1111.1
2014-Jul-23 04:33N 45°50' W 084°37'1212.0
2014-Jul-23 03:33N 45°53' W 084°20'1212.3
2014-Jul-23 02:33N 45°55' W 084°03'8 7.6
2014-Jul-23 01:33N 45°59' W 083°53'9 9.4
2014-Jul-23 00:33N 46°06' W 084°01'43 4.7
2014-Jul-22 15:29N 46°36' W 084°45'1212.2
2014-Jul-22 14:31N 46°46' W 084°54'1412.1
2014-Jul-22 13:24N 46°53' W 085°11'1112.4
2014-Jul-22 12:31N 46°57' W 085°26'1212.4
2014-Jul-22 11:32N 47°02' W 085°42'1412.5
2014-Jul-22 10:27N 47°08' W 086°01'  

Dump ship's entire track history